الصفحة الرئيسية
METAR-TAF:

METAR-TAF

مطار :

مطار هلسنكي فانتا

هلسنكي, فنلندا

دائرة عرض: 60-19N, خط طول: 024-58E, ارتفاع: 51 متر

مراقبة الطقس الحالي

تاريخ ووقت الإصدار 12 دقيقة قبل الساعة 01:50UTC
ريح 4 عقدة من الجنوب الغربي
درجة الحرارة 15°درجة مئوية
الرطوبة 94%
ضغط 1015 hPa
الرؤية 10 كم أو أكثر
غيوم قليلة على ارتفاع 1200 قدم

METAR: EFHK 150150Z 23004KT 9999 FEW012 15/14 Q1015 NOSIG

زمن: 05:02 (02:02 UTC)

توقعات

تاريخ ووقت الإصدار 2ساعات و 25 دقيقة قبل الساعة 23:37UTC
التوقعات صالحة من15 الساعة 00 UTC إلى 15 الساعة 24 UTC
ريح 5 عقدة من الجنوب الغربي
الرؤية 10 كم أو أكثر
غيوم قليلة على ارتفاع 2000 قدم
مؤقت
من 15 الساعة 09 UTC إلى 15 الساعة 14 UTC
غيوم قليلة على ارتفاع 4000 قدم, مزن ركامية عمودية.

TAF: EFHK 142337Z 1500/1524 22005KT 9999 FEW020 TEMPO 1509/1514 FEW040TCU

أرصاد الطقس والتوقعات من أكثر من 4000 مطار (تقارير الطقس للمطار METAR والتنبؤ بالطقس بالمطارTAF).

المحطات المتاحة هي النقط الصفراء والحمراء على الخريطة.

حرك المؤشر فوق النقطة لمعرفة اسم المحطة.

ثم انقر لمعرفة أرصاد وتوقعات الطقس.

لتغيير الخارطة: اضغط على الأزرار الخضراء مع رمز الصليب الأسود للتكبير. على الزر الأخضر مع شرطة للتصغير، أو على الأسهم الخضراء للخرائط المجاورة.


METAR-TAF: